createdAt,value
2023-03-23T22:41:58.135Z,24.6597
2023-03-23T22:42:59.377Z,24.7007
2023-03-23T22:44:00.612Z,24.7001
2023-03-23T22:45:40.231Z,24.6820
2023-03-23T22:46:41.513Z,24.7504
2023-03-23T22:47:42.709Z,24.7911
2023-03-23T22:48:43.898Z,24.7289
2023-03-23T22:49:45.158Z,24.6884
2023-03-23T22:50:46.473Z,24.6165
2023-03-23T22:51:47.631Z,24.6062
2023-03-23T22:52:48.862Z,24.5682
2023-03-23T22:53:50.103Z,24.5327
2023-03-23T22:54:51.348Z,24.8227
2023-03-23T22:55:52.567Z,24.7202
2023-03-23T22:56:53.829Z,24.7395
2023-03-23T22:57:55.027Z,24.7720
2023-03-23T22:58:56.277Z,24.8067
2023-03-23T22:59:57.509Z,24.8659
2023-03-23T23:00:58.784Z,24.8722
2023-03-23T23:01:59.969Z,24.8710
2023-03-23T23:03:01.255Z,24.8712
2023-03-23T23:04:02.464Z,24.8507
2023-03-23T23:05:03.693Z,24.7615
2023-03-23T23:06:05.053Z,24.6746
2023-03-23T23:07:12.869Z,24.6070
2023-03-23T23:08:07.543Z,24.5555
2023-03-23T23:09:08.683Z,24.4982
2023-03-23T23:10:09.963Z,24.4795
2023-03-23T23:11:11.527Z,24.4647
2023-03-23T23:12:12.376Z,24.4491
2023-03-23T23:13:13.620Z,24.4312
2023-03-23T23:14:14.843Z,24.4121
2023-03-23T23:15:16.081Z,24.4072
2023-03-23T23:16:17.491Z,24.3725
2023-03-23T23:17:18.579Z,24.3464
2023-03-23T23:18:19.828Z,24.3507
2023-03-23T23:19:21.056Z,24.3351
2023-03-23T23:20:22.326Z,24.3378
2023-03-23T23:21:23.519Z,24.3234
2023-03-23T23:22:24.766Z,24.3258
2023-03-23T23:23:26.011Z,24.2996
2023-03-23T23:24:27.304Z,24.2850
2023-03-23T23:25:28.518Z,24.2891
2023-03-23T23:26:29.748Z,24.2770
2023-03-23T23:27:31.082Z,24.2965
2023-03-23T23:28:32.254Z,24.2985
2023-03-23T23:29:33.508Z,24.2700
2023-03-23T23:30:34.777Z,24.2659
2023-03-23T23:31:35.964Z,24.2794
2023-03-23T23:32:37.240Z,24.2648
2023-03-23T23:33:38.451Z,24.2714
2023-03-23T23:34:39.733Z,24.2599
2023-03-23T23:35:40.952Z,24.2564
2023-03-23T23:36:42.198Z,24.2620
2023-03-23T23:37:43.454Z,24.2568
2023-03-23T23:38:44.660Z,24.2663
2023-03-23T23:39:45.945Z,24.2739
2023-03-23T23:40:47.421Z,24.2624
2023-03-23T23:41:48.381Z,24.2891
2023-03-23T23:42:49.647Z,24.2924
2023-03-23T23:43:50.980Z,24.2913
2023-03-23T23:44:52.141Z,24.2944
2023-03-23T23:45:53.379Z,24.3100
2023-03-23T23:46:54.588Z,24.3039
2023-03-23T23:47:55.878Z,24.3098
2023-03-23T23:48:57.084Z,24.3100
2023-03-23T23:49:58.352Z,24.2901
2023-03-23T23:50:59.569Z,24.2944
2023-03-23T23:52:00.789Z,24.2942
2023-03-23T23:53:02.077Z,24.2942
2023-03-23T23:54:03.275Z,24.3197
2023-03-23T23:55:04.592Z,24.3298
2023-03-23T23:56:05.761Z,24.3039
2023-03-23T23:57:07.118Z,24.3080
2023-03-23T23:58:08.237Z,24.3156
2023-03-23T23:59:09.461Z,24.2907
